Terminal Aerodrome Forecast
Issued by NWS

Home | Current Version | Previous Version | Text Only | Print | Product List | Glossary On
Versions: 1 2 3 4 5 6 7 8 9 10 11 12 13 14 15 16 17
001
FTUS46 KMFR 251138
TAFRBG
TAF
KRBG 251138Z 2512/2612 00000KT P6SM SCT100 BKN150 BKN200
     FM252100 36005KT P6SM SCT090
     FM260400 VRB02KT P6SM FEW060 SCT120=

USA.gov is the U.S. government's official web portal to all federal, state and local government web resources and services.